Etusivu
METAR-TAF:

METAR-TAF

Lentoasemat :

Dalhart Municipal Airport

Dalhart, Texas, Yhdysvallat

Leveyspiiri: 36-01-24N, Pituuspiiri: 102-32-50W, korkeus merenpinnasta: 1216 m

Tämänhetkinen sää

Tämä raportti tehtiin 32 minuuttia sitten, kello 10.53 UTC
Tuuli 8 kn lännestä/luoteesta
Lämpötila -6°C
Kosteus 68%
Ilmanpaine 1023 hPa
Näkyvyys: 16.1 km
selkeää

METAR: KDHT 041053Z AUTO 29008KT 10SM CLR M06/M11 A3020 RMK AO2 SLP241 T10561106

Aika: 05:25 (11:25 UTC)

Sääennuste

Tämä raportti tehtiin 6 tuntia ja 5 minuuttia sitten, kello 05.20 UTC
Ennuste voimassa 04. päivästä klo 06 UTC - 05. päivään klo 06 UTC
Tuuli 7 kn lännestä/luoteesta
Näkyvyys: 10 km
selkeää
From 04. päivästä klo 1800 UTC
Tuuli 13 kn pohjoisesta
Näkyvyys: 10 km
selkeää
From 05. päivästä klo 0000 UTC
Tuuli 6 kn pohjoisesta
Näkyvyys: 10 km
selkeää

TAF: KDHT 040520Z 0406/0506 30007KT P6SM SKC FM041800 36013KT P6SM SKC FM050000 01006KT P6SM SKC

Säähavainnot ja -ennusteet yli 4000 lentoasemalta (METAR- ja TAF-raportit).

Käytössä olevat sääasemat on merkitty karttaan keltaisilla ja punaisilla pisteillä.

Aseta hiiri pisteen päälle nähdäksesi sääaseman nimen.

Klikkaa sitten nähdäksesi säähavainnot ja -ennusteet.

Kartan vaihtaminen: klikkaa mustalla rastilla varustettuja vihreitä pisteitä, niin voit zoomata sisään; viivalla varustettua vihreää pistettä, niin voit zoomata ulos tai vihreitä nuolia, niin pääset viereisille kartoille.


METAR-TAF: